Terminal Aerodrome Forecast
Issued by NWS

Home | Current Version | Previous Version | Text Only | Print | Product List | Glossary On
Versions: 1 2 3 4 5 6 7 8 9 10 11 12 13 14 15 16 17 18 19 20 21 22 23
000
FTUS41 KRLX 020500 RRA
TAFCKB
TAF
KCKB 020550Z 0206/0306 21002KT P6SM BKN080
     FM021500 22006KT P6SM SCT080
     FM021800 23009KT P6SM VCTS BKN050CB
     FM022000 23009G14KT 5SM TSRA BR BKN040CB
     FM030000 24007KT 6SM BR VCTS BKN080CB
     FM030200 25004KT P6SM BKN130
     FM030400 00000KT 3SM BR BKN150
     FM030500 00000KT 1SM BR SCT001 SCT200=

USA.gov is the U.S. government's official web portal to all federal, state and local government web resources and services.